sensor_id;sensor_type;location;lat;lon;timestamp;P1;durP1;ratioP1;P2;durP2;ratioP2
83398;SDS011;73326;43.228;0.106;2024-01-30T00:00:53;52.75;;;28.05;;
83398;SDS011;73326;43.228;0.106;2024-01-30T00:03:19;52.22;;;28.48;;
83398;SDS011;73326;43.228;0.106;2024-01-30T00:05:45;57.13;;;27.95;;
83398;SDS011;73326;43.228;0.106;2024-01-30T00:08:12;60.97;;;29.20;;
83398;SDS011;73326;43.228;0.106;2024-01-30T00:10:38;57.08;;;28.63;;
83398;SDS011;73326;43.228;0.106;2024-01-30T00:13:04;52.65;;;28.05;;
83398;SDS011;73326;43.228;0.106;2024-01-30T00:15:30;53.03;;;28.00;;
83398;SDS011;73326;43.228;0.106;2024-01-30T00:17:56;49.15;;;26.38;;
83398;SDS011;73326;43.228;0.106;2024-01-30T00:20:22;51.53;;;26.52;;
83398;SDS011;73326;43.228;0.106;2024-01-30T00:22:48;44.58;;;25.35;;
83398;SDS011;73326;43.228;0.106;2024-01-30T00:25:14;45.33;;;25.10;;
83398;SDS011;73326;43.228;0.106;2024-01-30T00:27:40;42.08;;;24.20;;
83398;SDS011;73326;43.228;0.106;2024-01-30T00:30:06;34.92;;;21.48;;
83398;SDS011;73326;43.228;0.106;2024-01-30T00:32:32;31.20;;;20.50;;
83398;SDS011;73326;43.228;0.106;2024-01-30T00:34:58;33.85;;;20.55;;
83398;SDS011;73326;43.228;0.106;2024-01-30T00:37:24;31.27;;;19.05;;
83398;SDS011;73326;43.228;0.106;2024-01-30T00:39:50;31.05;;;19.27;;
83398;SDS011;73326;43.228;0.106;2024-01-30T00:42:16;36.97;;;20.60;;
83398;SDS011;73326;43.228;0.106;2024-01-30T00:44:42;33.13;;;19.67;;
83398;SDS011;73326;43.228;0.106;2024-01-30T00:47:08;31.23;;;19.60;;
83398;SDS011;73326;43.228;0.106;2024-01-30T00:49:34;38.13;;;21.27;;
83398;SDS011;73326;43.228;0.106;2024-01-30T00:52:00;37.72;;;22.27;;
83398;SDS011;73326;43.228;0.106;2024-01-30T00:54:26;34.38;;;20.67;;
83398;SDS011;73326;43.228;0.106;2024-01-30T00:56:52;36.67;;;22.02;;
83398;SDS011;73326;43.228;0.106;2024-01-30T00:59:18;42.90;;;21.33;;
83398;SDS011;73326;43.228;0.106;2024-01-30T01:01:44;36.15;;;21.00;;
83398;SDS011;73326;43.228;0.106;2024-01-30T01:04:10;34.58;;;19.30;;
83398;SDS011;73326;43.228;0.106;2024-01-30T01:06:36;37.15;;;21.50;;
83398;SDS011;73326;43.228;0.106;2024-01-30T01:09:02;37.00;;;21.02;;
83398;SDS011;73326;43.228;0.106;2024-01-30T01:11:29;36.50;;;20.13;;
83398;SDS011;73326;43.228;0.106;2024-01-30T01:13:55;28.42;;;17.25;;
83398;SDS011;73326;43.228;0.106;2024-01-30T01:16:21;31.05;;;18.05;;
83398;SDS011;73326;43.228;0.106;2024-01-30T01:18:47;29.48;;;17.02;;
83398;SDS011;73326;43.228;0.106;2024-01-30T01:21:13;33.72;;;17.58;;
83398;SDS011;73326;43.228;0.106;2024-01-30T01:23:39;31.55;;;17.95;;
83398;SDS011;73326;43.228;0.106;2024-01-30T01:26:05;26.50;;;16.77;;
83398;SDS011;73326;43.228;0.106;2024-01-30T01:28:31;30.55;;;17.45;;
83398;SDS011;73326;43.228;0.106;2024-01-30T01:30:57;27.75;;;16.90;;
83398;SDS011;73326;43.228;0.106;2024-01-30T01:33:29;31.57;;;17.87;;
83398;SDS011;73326;43.228;0.106;2024-01-30T01:35:57;33.50;;;19.92;;
83398;SDS011;73326;43.228;0.106;2024-01-30T01:38:23;35.15;;;18.30;;
83398;SDS011;73326;43.228;0.106;2024-01-30T01:40:49;33.97;;;20.38;;
83398;SDS011;73326;43.228;0.106;2024-01-30T01:43:15;35.38;;;19.55;;
83398;SDS011;73326;43.228;0.106;2024-01-30T01:45:41;39.75;;;19.33;;
83398;SDS011;73326;43.228;0.106;2024-01-30T01:48:07;34.08;;;19.90;;
83398;SDS011;73326;43.228;0.106;2024-01-30T01:50:34;35.47;;;19.48;;
83398;SDS011;73326;43.228;0.106;2024-01-30T01:53:00;42.72;;;21.20;;
83398;SDS011;73326;43.228;0.106;2024-01-30T01:55:26;37.42;;;20.38;;
83398;SDS011;73326;43.228;0.106;2024-01-30T01:57:53;42.63;;;19.85;;
83398;SDS011;73326;43.228;0.106;2024-01-30T02:00:19;39.28;;;20.65;;
83398;SDS011;73326;43.228;0.106;2024-01-30T02:02:45;40.47;;;21.98;;
83398;SDS011;73326;43.228;0.106;2024-01-30T02:05:12;43.03;;;21.75;;
83398;SDS011;73326;43.228;0.106;2024-01-30T02:07:38;44.40;;;21.55;;
83398;SDS011;73326;43.228;0.106;2024-01-30T02:10:04;40.78;;;21.05;;
83398;SDS011;73326;43.228;0.106;2024-01-30T02:12:30;40.00;;;21.73;;
83398;SDS011;73326;43.228;0.106;2024-01-30T02:14:56;45.65;;;22.23;;
83398;SDS011;73326;43.228;0.106;2024-01-30T02:17:23;50.22;;;25.35;;
83398;SDS011;73326;43.228;0.106;2024-01-30T02:19:49;51.15;;;23.77;;
83398;SDS011;73326;43.228;0.106;2024-01-30T02:22:15;56.53;;;25.60;;
83398;SDS011;73326;43.228;0.106;2024-01-30T02:24:41;59.30;;;24.83;;
83398;SDS011;73326;43.228;0.106;2024-01-30T02:27:07;54.28;;;24.48;;
83398;SDS011;73326;43.228;0.106;2024-01-30T02:29:33;51.45;;;24.55;;
83398;SDS011;73326;43.228;0.106;2024-01-30T02:31:59;47.03;;;23.73;;
83398;SDS011;73326;43.228;0.106;2024-01-30T02:34:25;56.60;;;27.05;;
83398;SDS011;73326;43.228;0.106;2024-01-30T02:36:51;55.58;;;27.38;;
83398;SDS011;73326;43.228;0.106;2024-01-30T02:39:17;60.88;;;28.65;;
83398;SDS011;73326;43.228;0.106;2024-01-30T02:41:43;47.00;;;23.85;;
83398;SDS011;73326;43.228;0.106;2024-01-30T02:44:09;48.92;;;22.27;;
83398;SDS011;73326;43.228;0.106;2024-01-30T02:46:35;45.78;;;22.95;;
83398;SDS011;73326;43.228;0.106;2024-01-30T02:49:01;51.20;;;26.00;;
83398;SDS011;73326;43.228;0.106;2024-01-30T02:51:28;51.70;;;24.45;;
83398;SDS011;73326;43.228;0.106;2024-01-30T02:53:53;52.25;;;21.73;;
83398;SDS011;73326;43.228;0.106;2024-01-30T02:56:19;41.90;;;20.50;;
83398;SDS011;73326;43.228;0.106;2024-01-30T02:58:46;37.28;;;19.15;;
83398;SDS011;73326;43.228;0.106;2024-01-30T03:01:11;40.00;;;20.33;;
83398;SDS011;73326;43.228;0.106;2024-01-30T03:03:37;31.20;;;17.08;;
83398;SDS011;73326;43.228;0.106;2024-01-30T03:06:05;24.38;;;14.15;;
83398;SDS011;73326;43.228;0.106;2024-01-30T03:08:32;23.73;;;14.07;;
83398;SDS011;73326;43.228;0.106;2024-01-30T03:10:59;26.40;;;14.35;;
83398;SDS011;73326;43.228;0.106;2024-01-30T03:13:26;23.42;;;13.23;;
83398;SDS011;73326;43.228;0.106;2024-01-30T03:15:52;18.35;;;11.52;;
83398;SDS011;73326;43.228;0.106;2024-01-30T03:18:19;20.88;;;12.38;;
83398;SDS011;73326;43.228;0.106;2024-01-30T03:20:45;21.00;;;12.02;;
83398;SDS011;73326;43.228;0.106;2024-01-30T03:23:11;18.95;;;11.35;;
83398;SDS011;73326;43.228;0.106;2024-01-30T03:25:37;18.10;;;11.98;;
83398;SDS011;73326;43.228;0.106;2024-01-30T03:28:03;20.90;;;12.52;;
83398;SDS011;73326;43.228;0.106;2024-01-30T03:30:29;23.10;;;11.57;;
83398;SDS011;73326;43.228;0.106;2024-01-30T03:32:55;20.33;;;11.43;;
83398;SDS011;73326;43.228;0.106;2024-01-30T03:35:21;19.38;;;10.73;;
83398;SDS011;73326;43.228;0.106;2024-01-30T03:37:47;17.13;;;10.52;;
83398;SDS011;73326;43.228;0.106;2024-01-30T03:40:13;19.15;;;10.68;;
83398;SDS011;73326;43.228;0.106;2024-01-30T03:42:40;18.95;;;11.18;;
83398;SDS011;73326;43.228;0.106;2024-01-30T03:45:06;18.95;;;10.85;;
83398;SDS011;73326;43.228;0.106;2024-01-30T03:47:32;19.52;;;10.75;;
83398;SDS011;73326;43.228;0.106;2024-01-30T03:49:58;19.20;;;10.80;;
83398;SDS011;73326;43.228;0.106;2024-01-30T03:52:24;24.65;;;12.27;;
83398;SDS011;73326;43.228;0.106;2024-01-30T03:54:50;21.58;;;12.00;;
83398;SDS011;73326;43.228;0.106;2024-01-30T03:57:16;17.23;;;10.20;;
83398;SDS011;73326;43.228;0.106;2024-01-30T03:59:42;16.50;;;10.27;;
83398;SDS011;73326;43.228;0.106;2024-01-30T04:02:09;14.73;;;9.82;;
83398;SDS011;73326;43.228;0.106;2024-01-30T04:04:36;17.95;;;9.77;;
83398;SDS011;73326;43.228;0.106;2024-01-30T04:07:02;21.65;;;11.18;;
83398;SDS011;73326;43.228;0.106;2024-01-30T04:09:28;13.30;;;8.77;;
83398;SDS011;73326;43.228;0.106;2024-01-30T04:11:54;14.50;;;9.15;;
83398;SDS011;73326;43.228;0.106;2024-01-30T04:14:20;14.07;;;7.75;;
83398;SDS011;73326;43.228;0.106;2024-01-30T04:16:46;12.65;;;7.45;;
83398;SDS011;73326;43.228;0.106;2024-01-30T04:19:12;10.93;;;5.72;;
83398;SDS011;73326;43.228;0.106;2024-01-30T04:21:38;10.02;;;5.90;;
83398;SDS011;73326;43.228;0.106;2024-01-30T04:24:04;9.30;;;5.60;;
83398;SDS011;73326;43.228;0.106;2024-01-30T04:26:30;7.97;;;5.00;;
83398;SDS011;73326;43.228;0.106;2024-01-30T04:28:56;7.55;;;5.20;;
83398;SDS011;73326;43.228;0.106;2024-01-30T04:31:22;8.13;;;5.13;;
83398;SDS011;73326;43.228;0.106;2024-01-30T04:33:48;11.48;;;6.38;;
83398;SDS011;73326;43.228;0.106;2024-01-30T04:36:14;8.95;;;5.72;;
83398;SDS011;73326;43.228;0.106;2024-01-30T04:38:40;8.55;;;4.95;;
83398;SDS011;73326;43.228;0.106;2024-01-30T04:41:06;10.02;;;5.30;;
83398;SDS011;73326;43.228;0.106;2024-01-30T04:43:33;7.57;;;4.88;;
83398;SDS011;73326;43.228;0.106;2024-01-30T04:45:59;8.00;;;4.88;;
83398;SDS011;73326;43.228;0.106;2024-01-30T04:48:25;8.07;;;4.85;;
83398;SDS011;73326;43.228;0.106;2024-01-30T04:50:51;9.13;;;5.10;;
83398;SDS011;73326;43.228;0.106;2024-01-30T04:53:18;9.30;;;5.28;;
83398;SDS011;73326;43.228;0.106;2024-01-30T04:55:44;8.75;;;5.18;;
83398;SDS011;73326;43.228;0.106;2024-01-30T04:58:10;8.93;;;4.40;;
83398;SDS011;73326;43.228;0.106;2024-01-30T05:00:36;7.55;;;4.90;;
83398;SDS011;73326;43.228;0.106;2024-01-30T05:03:02;9.85;;;5.88;;
83398;SDS011;73326;43.228;0.106;2024-01-30T05:05:28;9.32;;;6.47;;
83398;SDS011;73326;43.228;0.106;2024-01-30T05:07:54;12.48;;;6.65;;
83398;SDS011;73326;43.228;0.106;2024-01-30T05:10:20;23.05;;;12.70;;
83398;SDS011;73326;43.228;0.106;2024-01-30T05:12:46;20.42;;;11.32;;
83398;SDS011;73326;43.228;0.106;2024-01-30T05:15:12;24.77;;;11.60;;
83398;SDS011;73326;43.228;0.106;2024-01-30T05:17:38;11.77;;;6.93;;
83398;SDS011;73326;43.228;0.106;2024-01-30T05:20:05;11.90;;;7.30;;
83398;SDS011;73326;43.228;0.106;2024-01-30T05:22:31;19.88;;;10.48;;
83398;SDS011;73326;43.228;0.106;2024-01-30T05:24:57;8.75;;;5.65;;
83398;SDS011;73326;43.228;0.106;2024-01-30T05:27:23;10.90;;;5.88;;
83398;SDS011;73326;43.228;0.106;2024-01-30T05:29:49;10.00;;;5.22;;
83398;SDS011;73326;43.228;0.106;2024-01-30T05:32:15;10.18;;;5.78;;
83398;SDS011;73326;43.228;0.106;2024-01-30T05:34:41;12.00;;;7.85;;
83398;SDS011;73326;43.228;0.106;2024-01-30T05:37:07;22.45;;;11.68;;
83398;SDS011;73326;43.228;0.106;2024-01-30T05:39:33;15.50;;;6.82;;
83398;SDS011;73326;43.228;0.106;2024-01-30T05:41:59;10.65;;;7.00;;
83398;SDS011;73326;43.228;0.106;2024-01-30T05:44:25;10.73;;;6.47;;
83398;SDS011;73326;43.228;0.106;2024-01-30T05:46:51;8.20;;;5.55;;
83398;SDS011;73326;43.228;0.106;2024-01-30T05:49:17;8.48;;;5.40;;
83398;SDS011;73326;43.228;0.106;2024-01-30T05:51:43;8.90;;;5.88;;
83398;SDS011;73326;43.228;0.106;2024-01-30T05:54:09;9.88;;;5.82;;
83398;SDS011;73326;43.228;0.106;2024-01-30T05:56:35;9.82;;;5.50;;
83398;SDS011;73326;43.228;0.106;2024-01-30T05:59:01;6.70;;;4.90;;
83398;SDS011;73326;43.228;0.106;2024-01-30T06:01:27;10.43;;;5.78;;
83398;SDS011;73326;43.228;0.106;2024-01-30T06:03:54;8.82;;;5.93;;
83398;SDS011;73326;43.228;0.106;2024-01-30T06:06:20;10.70;;;6.43;;
83398;SDS011;73326;43.228;0.106;2024-01-30T06:08:46;12.40;;;7.60;;
83398;SDS011;73326;43.228;0.106;2024-01-30T06:11:12;12.63;;;7.25;;
83398;SDS011;73326;43.228;0.106;2024-01-30T06:13:38;11.00;;;7.05;;
83398;SDS011;73326;43.228;0.106;2024-01-30T06:16:04;11.00;;;7.57;;
83398;SDS011;73326;43.228;0.106;2024-01-30T06:18:31;12.75;;;9.05;;
83398;SDS011;73326;43.228;0.106;2024-01-30T06:20:57;13.80;;;9.05;;
83398;SDS011;73326;43.228;0.106;2024-01-30T06:23:23;12.15;;;8.13;;
83398;SDS011;73326;43.228;0.106;2024-01-30T06:25:49;18.63;;;9.00;;
83398;SDS011;73326;43.228;0.106;2024-01-30T06:28:15;12.07;;;8.52;;
83398;SDS011;73326;43.228;0.106;2024-01-30T06:30:41;14.38;;;9.50;;
83398;SDS011;73326;43.228;0.106;2024-01-30T06:33:07;15.48;;;9.27;;
83398;SDS011;73326;43.228;0.106;2024-01-30T06:35:33;13.75;;;9.48;;
83398;SDS011;73326;43.228;0.106;2024-01-30T06:38:01;18.05;;;10.20;;
83398;SDS011;73326;43.228;0.106;2024-01-30T06:40:27;14.23;;;9.43;;
83398;SDS011;73326;43.228;0.106;2024-01-30T06:42:53;14.68;;;9.57;;
83398;SDS011;73326;43.228;0.106;2024-01-30T06:45:19;15.02;;;9.55;;
83398;SDS011;73326;43.228;0.106;2024-01-30T06:47:45;21.55;;;10.93;;
83398;SDS011;73326;43.228;0.106;2024-01-30T06:50:11;16.23;;;10.10;;
83398;SDS011;73326;43.228;0.106;2024-01-30T06:52:37;13.73;;;9.65;;
83398;SDS011;73326;43.228;0.106;2024-01-30T06:55:03;19.70;;;12.40;;
83398;SDS011;73326;43.228;0.106;2024-01-30T06:57:29;30.13;;;18.02;;
83398;SDS011;73326;43.228;0.106;2024-01-30T06:59:55;41.70;;;22.58;;
83398;SDS011;73326;43.228;0.106;2024-01-30T07:02:21;36.60;;;21.10;;
83398;SDS011;73326;43.228;0.106;2024-01-30T07:04:47;35.22;;;20.80;;
83398;SDS011;73326;43.228;0.106;2024-01-30T07:07:14;32.60;;;19.05;;
83398;SDS011;73326;43.228;0.106;2024-01-30T07:09:40;28.95;;;17.35;;
83398;SDS011;73326;43.228;0.106;2024-01-30T07:12:06;29.48;;;17.50;;
83398;SDS011;73326;43.228;0.106;2024-01-30T07:14:33;31.65;;;17.50;;
83398;SDS011;73326;43.228;0.106;2024-01-30T07:16:59;24.48;;;13.43;;
83398;SDS011;73326;43.228;0.106;2024-01-30T07:19:25;26.27;;;15.23;;
83398;SDS011;73326;43.228;0.106;2024-01-30T07:21:51;22.52;;;14.02;;
83398;SDS011;73326;43.228;0.106;2024-01-30T07:24:17;27.02;;;14.55;;
83398;SDS011;73326;43.228;0.106;2024-01-30T07:26:43;27.50;;;15.30;;
83398;SDS011;73326;43.228;0.106;2024-01-30T07:29:09;30.00;;;16.02;;
83398;SDS011;73326;43.228;0.106;2024-01-30T07:31:35;25.90;;;15.38;;
83398;SDS011;73326;43.228;0.106;2024-01-30T07:34:01;54.17;;;23.42;;
83398;SDS011;73326;43.228;0.106;2024-01-30T07:36:27;32.65;;;16.08;;
83398;SDS011;73326;43.228;0.106;2024-01-30T07:38:53;23.50;;;12.15;;
83398;SDS011;73326;43.228;0.106;2024-01-30T07:41:19;19.25;;;12.13;;
83398;SDS011;73326;43.228;0.106;2024-01-30T07:43:46;19.85;;;11.10;;
83398;SDS011;73326;43.228;0.106;2024-01-30T07:46:12;19.60;;;11.15;;
83398;SDS011;73326;43.228;0.106;2024-01-30T07:48:38;14.50;;;8.95;;
83398;SDS011;73326;43.228;0.106;2024-01-30T07:51:04;13.32;;;8.05;;
83398;SDS011;73326;43.228;0.106;2024-01-30T07:53:30;13.90;;;7.72;;
83398;SDS011;73326;43.228;0.106;2024-01-30T07:55:56;15.32;;;7.53;;
83398;SDS011;73326;43.228;0.106;2024-01-30T07:58:22;12.65;;;7.10;;
83398;SDS011;73326;43.228;0.106;2024-01-30T08:00:48;16.60;;;6.78;;
83398;SDS011;73326;43.228;0.106;2024-01-30T08:03:16;12.27;;;6.68;;
83398;SDS011;73326;43.228;0.106;2024-01-30T08:05:43;14.45;;;6.35;;
83398;SDS011;73326;43.228;0.106;2024-01-30T08:08:09;13.10;;;6.72;;
83398;SDS011;73326;43.228;0.106;2024-01-30T08:10:35;10.25;;;5.50;;
83398;SDS011;73326;43.228;0.106;2024-01-30T08:13:01;14.73;;;6.32;;
83398;SDS011;73326;43.228;0.106;2024-01-30T08:15:28;9.25;;;5.97;;
83398;SDS011;73326;43.228;0.106;2024-01-30T08:17:54;10.02;;;5.50;;
83398;SDS011;73326;43.228;0.106;2024-01-30T08:20:23;8.05;;;5.15;;
83398;SDS011;73326;43.228;0.106;2024-01-30T08:22:49;8.98;;;4.97;;
83398;SDS011;73326;43.228;0.106;2024-01-30T08:25:15;8.75;;;4.78;;
83398;SDS011;73326;43.228;0.106;2024-01-30T08:27:41;14.15;;;6.93;;
83398;SDS011;73326;43.228;0.106;2024-01-30T08:30:07;19.45;;;8.60;;
83398;SDS011;73326;43.228;0.106;2024-01-30T08:32:33;17.40;;;9.30;;
83398;SDS011;73326;43.228;0.106;2024-01-30T08:34:59;14.30;;;8.10;;
83398;SDS011;73326;43.228;0.106;2024-01-30T08:37:28;12.75;;;6.50;;
83398;SDS011;73326;43.228;0.106;2024-01-30T08:39:54;13.25;;;5.85;;
83398;SDS011;73326;43.228;0.106;2024-01-30T08:42:20;9.18;;;5.53;;
83398;SDS011;73326;43.228;0.106;2024-01-30T08:44:50;10.50;;;5.22;;
83398;SDS011;73326;43.228;0.106;2024-01-30T08:47:17;10.10;;;5.22;;
83398;SDS011;73326;43.228;0.106;2024-01-30T08:49:43;11.65;;;7.55;;
83398;SDS011;73326;43.228;0.106;2024-01-30T08:52:10;19.17;;;13.30;;
83398;SDS011;73326;43.228;0.106;2024-01-30T08:54:36;35.38;;;22.20;;
83398;SDS011;73326;43.228;0.106;2024-01-30T08:57:02;12.90;;;7.72;;
83398;SDS011;73326;43.228;0.106;2024-01-30T08:59:29;11.25;;;6.20;;
83398;SDS011;73326;43.228;0.106;2024-01-30T09:01:55;10.02;;;5.82;;
83398;SDS011;73326;43.228;0.106;2024-01-30T09:04:23;10.25;;;5.78;;
83398;SDS011;73326;43.228;0.106;2024-01-30T09:06:49;10.38;;;5.43;;
83398;SDS011;73326;43.228;0.106;2024-01-30T09:09:15;9.68;;;5.20;;
83398;SDS011;73326;43.228;0.106;2024-01-30T09:11:41;10.68;;;5.03;;
83398;SDS011;73326;43.228;0.106;2024-01-30T09:14:07;9.60;;;5.22;;
83398;SDS011;73326;43.228;0.106;2024-01-30T09:16:33;8.45;;;5.05;;
83398;SDS011;73326;43.228;0.106;2024-01-30T09:19:00;10.02;;;6.13;;
83398;SDS011;73326;43.228;0.106;2024-01-30T09:21:26;8.85;;;5.28;;
83398;SDS011;73326;43.228;0.106;2024-01-30T09:23:54;9.55;;;5.95;;
83398;SDS011;73326;43.228;0.106;2024-01-30T09:26:20;9.40;;;5.85;;
83398;SDS011;73326;43.228;0.106;2024-01-30T09:28:46;10.25;;;5.82;;
83398;SDS011;73326;43.228;0.106;2024-01-30T09:31:12;20.85;;;14.52;;
83398;SDS011;73326;43.228;0.106;2024-01-30T09:33:38;19.80;;;12.27;;
83398;SDS011;73326;43.228;0.106;2024-01-30T09:36:07;16.17;;;9.25;;
83398;SDS011;73326;43.228;0.106;2024-01-30T09:38:33;21.20;;;14.98;;
83398;SDS011;73326;43.228;0.106;2024-01-30T09:41:00;19.10;;;13.85;;
83398;SDS011;73326;43.228;0.106;2024-01-30T09:43:28;14.02;;;11.40;;
83398;SDS011;73326;43.228;0.106;2024-01-30T09:45:56;16.75;;;11.93;;
83398;SDS011;73326;43.228;0.106;2024-01-30T09:48:23;8.80;;;6.65;;
83398;SDS011;73326;43.228;0.106;2024-01-30T09:50:50;8.20;;;5.22;;
83398;SDS011;73326;43.228;0.106;2024-01-30T09:53:16;7.88;;;5.10;;
83398;SDS011;73326;43.228;0.106;2024-01-30T09:55:43;8.73;;;5.05;;
83398;SDS011;73326;43.228;0.106;2024-01-30T09:58:09;9.30;;;5.93;;
83398;SDS011;73326;43.228;0.106;2024-01-30T10:00:35;9.75;;;5.55;;
83398;SDS011;73326;43.228;0.106;2024-01-30T10:03:01;8.32;;;5.40;;
83398;SDS011;73326;43.228;0.106;2024-01-30T10:05:27;7.13;;;5.78;;
83398;SDS011;73326;43.228;0.106;2024-01-30T10:07:53;10.70;;;5.88;;
83398;SDS011;73326;43.228;0.106;2024-01-30T10:10:21;9.52;;;5.07;;
83398;SDS011;73326;43.228;0.106;2024-01-30T10:12:48;9.07;;;5.30;;
83398;SDS011;73326;43.228;0.106;2024-01-30T10:15:14;9.13;;;5.25;;
83398;SDS011;73326;43.228;0.106;2024-01-30T10:17:40;7.00;;;5.28;;
83398;SDS011;73326;43.228;0.106;2024-01-30T10:20:06;8.45;;;5.97;;
83398;SDS011;73326;43.228;0.106;2024-01-30T10:22:33;8.43;;;4.90;;
83398;SDS011;73326;43.228;0.106;2024-01-30T10:24:59;6.72;;;4.80;;
83398;SDS011;73326;43.228;0.106;2024-01-30T10:27:26;7.22;;;5.85;;
83398;SDS011;73326;43.228;0.106;2024-01-30T10:29:54;7.95;;;4.82;;
83398;SDS011;73326;43.228;0.106;2024-01-30T10:32:20;9.13;;;4.90;;
83398;SDS011;73326;43.228;0.106;2024-01-30T10:34:46;8.25;;;5.10;;
83398;SDS011;73326;43.228;0.106;2024-01-30T10:37:12;9.25;;;5.72;;
83398;SDS011;73326;43.228;0.106;2024-01-30T10:39:42;10.52;;;5.00;;
83398;SDS011;73326;43.228;0.106;2024-01-30T10:42:18;8.82;;;5.13;;
83398;SDS011;73326;43.228;0.106;2024-01-30T10:44:48;11.27;;;7.82;;
83398;SDS011;73326;43.228;0.106;2024-01-30T10:47:18;18.90;;;12.60;;
83398;SDS011;73326;43.228;0.106;2024-01-30T10:49:47;13.40;;;10.32;;
83398;SDS011;73326;43.228;0.106;2024-01-30T10:52:13;10.30;;;8.00;;
83398;SDS011;73326;43.228;0.106;2024-01-30T10:54:42;10.88;;;6.22;;
83398;SDS011;73326;43.228;0.106;2024-01-30T10:57:10;12.82;;;6.38;;
83398;SDS011;73326;43.228;0.106;2024-01-30T10:59:37;10.00;;;6.30;;
83398;SDS011;73326;43.228;0.106;2024-01-30T11:02:03;8.27;;;5.05;;
83398;SDS011;73326;43.228;0.106;2024-01-30T11:04:35;6.68;;;4.50;;
83398;SDS011;73326;43.228;0.106;2024-01-30T11:09:29;6.30;;;4.15;;
83398;SDS011;73326;43.228;0.106;2024-01-30T11:11:58;5.70;;;3.78;;
83398;SDS011;73326;43.228;0.106;2024-01-30T11:14:29;6.53;;;3.72;;
83398;SDS011;73326;43.228;0.106;2024-01-30T11:16:58;7.63;;;4.28;;
83398;SDS011;73326;43.228;0.106;2024-01-30T11:19:25;4.43;;;4.03;;
83398;SDS011;73326;43.228;0.106;2024-01-30T11:21:52;7.40;;;4.18;;
83398;SDS011;73326;43.228;0.106;2024-01-30T11:24:22;6.13;;;3.78;;
83398;SDS011;73326;43.228;0.106;2024-01-30T11:26:57;6.10;;;3.85;;
83398;SDS011;73326;43.228;0.106;2024-01-30T11:29:27;5.93;;;3.72;;
83398;SDS011;73326;43.228;0.106;2024-01-30T11:31:54;6.75;;;3.97;;
83398;SDS011;73326;43.228;0.106;2024-01-30T11:34:20;5.57;;;3.50;;
83398;SDS011;73326;43.228;0.106;2024-01-30T11:36:53;5.63;;;3.33;;
83398;SDS011;73326;43.228;0.106;2024-01-30T11:39:24;4.45;;;3.00;;
83398;SDS011;73326;43.228;0.106;2024-01-30T11:41:51;6.80;;;3.35;;
83398;SDS011;73326;43.228;0.106;2024-01-30T11:44:18;4.90;;;3.33;;
83398;SDS011;73326;43.228;0.106;2024-01-30T11:46:45;7.93;;;4.20;;
83398;SDS011;73326;43.228;0.106;2024-01-30T11:49:11;7.13;;;4.07;;
83398;SDS011;73326;43.228;0.106;2024-01-30T11:51:37;7.72;;;4.13;;
83398;SDS011;73326;43.228;0.106;2024-01-30T11:54:03;6.28;;;4.10;;
83398;SDS011;73326;43.228;0.106;2024-01-30T11:56:30;6.15;;;4.15;;
83398;SDS011;73326;43.228;0.106;2024-01-30T11:58:56;7.97;;;4.10;;
83398;SDS011;73326;43.228;0.106;2024-01-30T12:01:22;9.38;;;4.10;;
83398;SDS011;73326;43.228;0.106;2024-01-30T12:03:51;8.15;;;4.45;;
83398;SDS011;73326;43.228;0.106;2024-01-30T12:06:17;6.35;;;3.75;;
83398;SDS011;73326;43.228;0.106;2024-01-30T12:08:43;5.80;;;3.60;;
83398;SDS011;73326;43.228;0.106;2024-01-30T12:11:19;6.50;;;3.50;;
83398;SDS011;73326;43.228;0.106;2024-01-30T12:13:45;6.07;;;3.90;;
83398;SDS011;73326;43.228;0.106;2024-01-30T12:16:11;6.20;;;3.75;;
83398;SDS011;73326;43.228;0.106;2024-01-30T12:18:38;6.32;;;3.58;;
83398;SDS011;73326;43.228;0.106;2024-01-30T12:21:04;5.35;;;3.20;;
83398;SDS011;73326;43.228;0.106;2024-01-30T12:23:30;6.22;;;3.47;;
83398;SDS011;73326;43.228;0.106;2024-01-30T12:25:56;5.90;;;3.28;;
83398;SDS011;73326;43.228;0.106;2024-01-30T12:28:22;5.90;;;3.45;;
83398;SDS011;73326;43.228;0.106;2024-01-30T12:30:48;5.35;;;3.55;;
83398;SDS011;73326;43.228;0.106;2024-01-30T12:33:18;7.20;;;3.67;;
83398;SDS011;73326;43.228;0.106;2024-01-30T12:35:47;5.55;;;3.55;;
83398;SDS011;73326;43.228;0.106;2024-01-30T12:38:14;5.30;;;3.47;;
83398;SDS011;73326;43.228;0.106;2024-01-30T12:40:40;6.97;;;3.42;;
83398;SDS011;73326;43.228;0.106;2024-01-30T12:43:06;5.40;;;3.40;;
83398;SDS011;73326;43.228;0.106;2024-01-30T12:45:32;5.82;;;3.38;;
83398;SDS011;73326;43.228;0.106;2024-01-30T12:47:58;5.88;;;3.50;;
83398;SDS011;73326;43.228;0.106;2024-01-30T12:50:24;4.70;;;3.17;;
83398;SDS011;73326;43.228;0.106;2024-01-30T12:52:50;4.38;;;3.10;;
83398;SDS011;73326;43.228;0.106;2024-01-30T12:55:16;5.70;;;3.28;;
83398;SDS011;73326;43.228;0.106;2024-01-30T12:57:42;6.03;;;3.30;;
83398;SDS011;73326;43.228;0.106;2024-01-30T13:00:08;6.88;;;3.58;;
83398;SDS011;73326;43.228;0.106;2024-01-30T13:02:35;7.18;;;3.13;;
83398;SDS011;73326;43.228;0.106;2024-01-30T13:05:02;8.30;;;3.50;;
83398;SDS011;73326;43.228;0.106;2024-01-30T13:07:28;5.88;;;3.45;;
83398;SDS011;73326;43.228;0.106;2024-01-30T13:09:54;5.25;;;3.35;;
83398;SDS011;73326;43.228;0.106;2024-01-30T13:12:20;7.80;;;4.00;;
83398;SDS011;73326;43.228;0.106;2024-01-30T13:14:46;5.90;;;3.78;;
83398;SDS011;73326;43.228;0.106;2024-01-30T13:17:12;6.20;;;4.18;;
83398;SDS011;73326;43.228;0.106;2024-01-30T13:19:39;5.03;;;3.95;;
83398;SDS011;73326;43.228;0.106;2024-01-30T13:22:05;6.70;;;3.95;;
83398;SDS011;73326;43.228;0.106;2024-01-30T13:24:31;6.75;;;4.60;;
83398;SDS011;73326;43.228;0.106;2024-01-30T13:26:57;4.80;;;4.30;;
83398;SDS011;73326;43.228;0.106;2024-01-30T13:29:23;6.55;;;4.38;;
83398;SDS011;73326;43.228;0.106;2024-01-30T13:31:49;4.38;;;3.25;;
83398;SDS011;73326;43.228;0.106;2024-01-30T13:34:15;7.13;;;3.80;;
83398;SDS011;73326;43.228;0.106;2024-01-30T13:36:41;5.20;;;3.42;;
83398;SDS011;73326;43.228;0.106;2024-01-30T13:39:08;5.32;;;3.40;;
83398;SDS011;73326;43.228;0.106;2024-01-30T13:41:37;6.18;;;3.75;;
83398;SDS011;73326;43.228;0.106;2024-01-30T13:44:03;6.00;;;3.30;;
83398;SDS011;73326;43.228;0.106;2024-01-30T13:46:30;5.82;;;3.45;;
83398;SDS011;73326;43.228;0.106;2024-01-30T13:48:56;4.35;;;3.22;;
83398;SDS011;73326;43.228;0.106;2024-01-30T13:51:22;6.45;;;3.30;;
83398;SDS011;73326;43.228;0.106;2024-01-30T13:53:48;6.22;;;3.20;;
83398;SDS011;73326;43.228;0.106;2024-01-30T13:56:15;6.10;;;4.00;;
83398;SDS011;73326;43.228;0.106;2024-01-30T13:58:41;4.38;;;3.10;;
83398;SDS011;73326;43.228;0.106;2024-01-30T14:01:07;6.03;;;3.35;;
83398;SDS011;73326;43.228;0.106;2024-01-30T14:03:35;6.75;;;3.38;;
83398;SDS011;73326;43.228;0.106;2024-01-30T14:06:01;5.32;;;3.30;;
83398;SDS011;73326;43.228;0.106;2024-01-30T14:08:27;4.03;;;3.15;;
83398;SDS011;73326;43.228;0.106;2024-01-30T14:10:53;6.68;;;3.22;;
83398;SDS011;73326;43.228;0.106;2024-01-30T14:13:22;7.53;;;3.30;;
83398;SDS011;73326;43.228;0.106;2024-01-30T14:15:50;7.50;;;3.40;;
83398;SDS011;73326;43.228;0.106;2024-01-30T14:18:16;6.03;;;3.25;;
83398;SDS011;73326;43.228;0.106;2024-01-30T14:20:42;6.63;;;3.50;;
83398;SDS011;73326;43.228;0.106;2024-01-30T14:23:08;5.65;;;3.22;;
83398;SDS011;73326;43.228;0.106;2024-01-30T14:25:34;5.72;;;3.63;;
83398;SDS011;73326;43.228;0.106;2024-01-30T14:28:00;6.45;;;3.63;;
83398;SDS011;73326;43.228;0.106;2024-01-30T14:30:26;6.07;;;3.47;;
83398;SDS011;73326;43.228;0.106;2024-01-30T14:32:52;5.03;;;3.35;;